Judy C — WDJ2660 — position and weather

sailwx.info

Track history (hours):
 
Tides and Currents Weather Stations Pressure Air Temp Water Temp Dewpoint Dewpoint Depression Visibility Wind Speed Wind Dir Waves Ship Positions

Judy C

Owner: Boston Line & Service Co Inc., Boston, MA. More information available from US FCC via Universal Licensing System and Coast Guard Vessel Documentation Center.

Last reported at 2017-Dec-16 20:47 UTC. Time now 2017-Dec-17 15:41 UTC.
Position N 42°20' W 070°60'.

Length 13 m.

Type: Ship. MMSI: 367760510.

Date/timePositionNaut miles runAvg speedWind from/ knotsBaromVisibWave heightAir tempDewpointWater temp
2017-Dec-16 20:47N 42°20' W 070°60'2 3.6
2017-Dec-16 20:05N 42°21' W 070°56'5 1.3
2017-Dec-16 16:34N 42°22' W 071°02'1 9.4
2017-Dec-16 16:28N 42°22' W 071°03'1 1.2
2017-Dec-16 16:00N 42°23' W 071°03'0 0.0
2017-Dec-16 15:30N 42°23' W 071°03'0 0.0
2017-Dec-16 15:00N 42°23' W 071°03'0 0.0
2017-Dec-16 14:30N 42°23' W 071°03'3 1.6
2017-Dec-16 12:38N 42°21' W 071°00'1 0.1
2017-Dec-15 22:16N 42°20' W 070°59'2 3.5
2017-Dec-15 21:43N 42°20' W 070°57'0 0.0
2017-Dec-15 21:30N 42°20' W 070°57'1 0.9
2017-Dec-15 20:52N 42°20' W 070°58'1 0.2
2017-Dec-15 17:53N 42°20' W 070°58'0 0.0
2017-Dec-15 05:16N 42°20' W 070°58'0 0.0
2017-Dec-15 04:48N 42°20' W 070°58'0 0.0
2017-Dec-15 04:30N 42°20' W 070°58'3 0.1
2017-Dec-13 22:21N 42°22' W 071°02'2 0.2
2017-Dec-13 12:37N 42°20' W 070°59'2 0.1
2017-Dec-11 22:24N 42°20' W 070°56'616.4
2017-Dec-11 22:00N 42°19' W 070°47'9612.4
2017-Dec-11 14:14N 41°12' W 072°19'418.2
2017-Dec-11 14:00N 41°13' W 072°25'612.8
2017-Dec-11 13:30N 41°16' W 072°32'0 0.0
2017-Dec-11 13:00N 41°16' W 072°32'0 0.0
2017-Dec-11 12:30N 41°16' W 072°32'0 0.0
2017-Dec-11 12:00N 41°16' W 072°32'0 0.0
2017-Dec-11 11:30N 41°16' W 072°32'0 0.0
2017-Dec-11 11:00N 41°16' W 072°32'0 0.0
2017-Dec-11 10:30N 41°16' W 072°32'0 0.0
2017-Dec-11 10:00N 41°16' W 072°32'0 0.0
2017-Dec-11 09:30N 41°16' W 072°32'0 0.0
2017-Dec-11 09:00N 41°16' W 072°32'0 0.0
2017-Dec-11 08:30N 41°16' W 072°32'0 0.0
2017-Dec-11 08:00N 41°16' W 072°32'0 0.0
2017-Dec-11 07:30N 41°16' W 072°32'0 0.0
2017-Dec-11 07:00N 41°16' W 072°32'0 0.0
2017-Dec-11 06:30N 41°16' W 072°32'0 0.0
2017-Dec-11 06:00N 41°16' W 072°32'0 0.0
2017-Dec-11 05:30N 41°16' W 072°32'0 0.0
2017-Dec-11 05:00N 41°16' W 072°32'0 0.0
2017-Dec-11 04:30N 41°16' W 072°32'0 0.0
2017-Dec-11 04:00N 41°16' W 072°32'0 0.0
2017-Dec-11 03:30N 41°16' W 072°32'0 0.0
2017-Dec-11 03:00N 41°16' W 072°32'0 0.0
2017-Dec-11 02:30N 41°16' W 072°32'0 0.0
2017-Dec-09 22:13N 41°16' W 072°32'0 0.1
2017-Dec-09 22:00N 41°16' W 072°32'2 3.8
2017-Dec-09 21:31N 41°15' W 072°34'0 0.9
2017-Dec-09 21:01N 41°16' W 072°34'0 0.0
2017-Dec-09 20:31N 41°16' W 072°34'0 0.5
2017-Dec-09 20:01N 41°15' W 072°34'0 0.3
2017-Dec-09 19:31N 41°16' W 072°34'0 0.5
2017-Dec-09 19:01N 41°16' W 072°34'0 0.0
2017-Dec-09 18:31N 41°16' W 072°34'0 0.2
2017-Dec-09 18:01N 41°16' W 072°34'0 0.2
2017-Dec-09 17:31N 41°16' W 072°34'0 0.0
2017-Dec-09 17:01N 41°16' W 072°34'0 0.0
2017-Dec-09 16:31N 41°16' W 072°34'0 0.0
2017-Dec-09 16:01N 41°16' W 072°34'0 0.1
2017-Dec-09 15:31N 41°16' W 072°34'0 0.0
2017-Dec-09 15:01N 41°16' W 072°34'0 0.5
2017-Dec-09 14:31N 41°16' W 072°34'2 3.4
2017-Dec-09 14:00N 41°16' W 072°32'0 0.0
2017-Dec-09 13:30N 41°16' W 072°32'0 0.0
2017-Dec-09 13:00N 41°16' W 072°32'2 3.8
2017-Dec-09 12:30N 41°15' W 072°34'2 3.9
2017-Dec-09 12:00N 41°16' W 072°32'0 0.0
2017-Dec-09 11:31N 41°16' W 072°32'0 0.0
2017-Dec-09 11:01N 41°16' W 072°32'0 0.0
2017-Dec-09 10:30N 41°16' W 072°32'0 0.0
2017-Dec-09 10:00N 41°16' W 072°32'0 0.0
2017-Dec-09 09:30N 41°16' W 072°32'0 0.0
2017-Dec-09 09:00N 41°16' W 072°32'0 0.0
2017-Dec-09 08:30N 41°16' W 072°32'0 0.0
2017-Dec-09 08:00N 41°16' W 072°32'0 0.0
2017-Dec-09 07:31N 41°16' W 072°32'0 0.0
2017-Dec-09 07:00N 41°16' W 072°32'0 0.0
2017-Dec-09 06:30N 41°16' W 072°32'0 0.0
2017-Dec-09 06:00N 41°16' W 072°32'0 0.0
2017-Dec-09 05:30N 41°16' W 072°32'0 0.0
2017-Dec-09 05:00N 41°16' W 072°32'0 0.0
2017-Dec-09 04:31N 41°16' W 072°32'0 0.0
2017-Dec-09 04:00N 41°16' W 072°32'0 0.0
2017-Dec-09 03:30N 41°16' W 072°32'0 0.0
2017-Dec-09 03:00N 41°16' W 072°32'0 0.0
2017-Dec-09 02:30N 41°16' W 072°32'0 0.0
2017-Dec-09 02:00N 41°16' W 072°32'0 0.0
2017-Dec-09 01:30N 41°16' W 072°32'0 0.0
2017-Dec-09 01:00N 41°16' W 072°32'0 0.0
2017-Dec-09 00:30N 41°16' W 072°32'0 0.0
2017-Dec-09 00:00N 41°16' W 072°32'0 0.0
2017-Dec-08 23:30N 41°16' W 072°32'0 0.0
2017-Dec-08 23:00N 41°16' W 072°32'0 0.0
2017-Dec-08 22:30N 41°16' W 072°32'0 0.0
2017-Dec-08 22:00N 41°16' W 072°32'0 0.0
2017-Dec-08 21:30N 41°16' W 072°32'0 0.0
2017-Dec-08 21:00N 41°16' W 072°32'0 0.0
2017-Dec-08 20:30N 41°16' W 072°32'0 0.0
2017-Dec-08 20:00N 41°16' W 072°32'0 0.0
2017-Dec-08 19:30N 41°16' W 072°32'0 0.0
2017-Dec-08 19:00N 41°16' W 072°32'0 0.0
2017-Dec-08 18:31N 41°16' W 072°32'0 0.0
2017-Dec-08 18:00N 41°16' W 072°32'0 0.0
2017-Dec-08 17:30N 41°16' W 072°32'0 0.0
2017-Dec-08 17:00N 41°16' W 072°32'0 0.0
2017-Dec-08 16:30N 41°16' W 072°32'0 0.0
2017-Dec-08 16:00N 41°16' W 072°32'0 0.0
2017-Dec-08 15:30N 41°16' W 072°32'0 0.0
2017-Dec-08 15:00N 41°16' W 072°32'0 0.0
2017-Dec-08 14:30N 41°16' W 072°32'0 0.0
2017-Dec-08 14:00N 41°16' W 072°32'0 0.0
2017-Dec-08 13:30N 41°16' W 072°32'0 0.0
2017-Dec-08 13:00N 41°16' W 072°32'0 0.0
2017-Dec-08 12:30N 41°16' W 072°32'0 0.0
2017-Dec-08 12:00N 41°16' W 072°32'0 0.0
2017-Dec-08 11:30N 41°16' W 072°32'0 0.0
2017-Dec-08 11:00N 41°16' W 072°32'0 0.0
2017-Dec-08 10:30N 41°16' W 072°32'0 0.0
2017-Dec-08 10:00N 41°16' W 072°32'0 0.0
2017-Dec-08 09:30N 41°16' W 072°32'0 0.0
2017-Dec-08 09:00N 41°16' W 072°32'0 0.0
2017-Dec-08 08:30N 41°16' W 072°32'0 0.0
2017-Dec-08 08:00N 41°16' W 072°32'0 0.0
2017-Dec-08 07:30N 41°16' W 072°32'0 0.0
2017-Dec-08 07:00N 41°16' W 072°32'0 0.0
2017-Dec-08 06:30N 41°16' W 072°32'0 0.0
2017-Dec-08 06:00N 41°16' W 072°32'0 0.0
2017-Dec-08 05:30N 41°16' W 072°32'2 3.2
2017-Dec-08 05:00N 41°15' W 072°32'2 3.2
2017-Dec-08 04:30N 41°16' W 072°32'0 0.0
2017-Dec-08 04:00N 41°16' W 072°32'0 0.0
2017-Dec-08 03:30N 41°16' W 072°32'0 0.0
2017-Dec-08 03:00N 41°16' W 072°32'2 3.6
2017-Dec-08 02:30N 41°14' W 072°33'1 2.9
2017-Dec-08 02:00N 41°16' W 072°34'0 0.0
2017-Dec-08 01:30N 41°16' W 072°34'0 0.1
2017-Dec-08 01:00N 41°16' W 072°34'2 3.1
2017-Dec-08 00:30N 41°16' W 072°32'0 0.0
2017-Dec-08 00:00N 41°16' W 072°32'2 3.2
2017-Dec-07 23:30N 41°16' W 072°34'2 3.2
2017-Dec-07 23:00N 41°16' W 072°32'0 0.0
2017-Dec-07 22:30N 41°16' W 072°32'0 0.0
2017-Dec-07 22:00N 41°16' W 072°32'0 0.0
2017-Dec-07 21:30N 41°16' W 072°32'0 0.0
2017-Dec-07 21:00N 41°16' W 072°32'0 0.0
2017-Dec-07 20:30N 41°16' W 072°32'0 0.0
2017-Dec-07 20:00N 41°16' W 072°32'0 0.0
2017-Dec-07 19:30N 41°16' W 072°32'0 0.0
2017-Dec-07 19:00N 41°16' W 072°32'0 0.0
2017-Dec-07 18:30N 41°16' W 072°32'0 0.0
2017-Dec-07 18:00N 41°16' W 072°32'0 0.0
2017-Dec-07 17:30N 41°16' W 072°32'0 0.0
2017-Dec-07 17:00N 41°16' W 072°32'2 3.7
2017-Dec-07 16:30N 41°15' W 072°34'2 3.8
2017-Dec-07 16:00N 41°16' W 072°32'0 0.0
2017-Dec-07 15:30N 41°16' W 072°32'0 0.0
2017-Dec-07 15:00N 41°16' W 072°32'0 0.0
2017-Dec-07 14:30N 41°16' W 072°32'0 0.0
2017-Dec-07 14:00N 41°16' W 072°32'0 0.0
2017-Dec-07 13:30N 41°16' W 072°32'0 0.0
2017-Dec-07 13:00N 41°16' W 072°32'0 0.0
2017-Dec-07 12:30N 41°16' W 072°32'0 0.0
2017-Dec-07 12:00N 41°16' W 072°32'2 3.7
2017-Dec-07 11:30N 41°15' W 072°34'2 3.7
2017-Dec-07 11:00N 41°16' W 072°32'0 0.0
2017-Dec-07 10:31N 41°16' W 072°32'0 0.0
2017-Dec-07 10:00N 41°16' W 072°32'0 0.0
2017-Dec-07 09:31N 41°16' W 072°32'0 0.0
2017-Dec-07 09:00N 41°16' W 072°32'0 0.0
2017-Dec-07 08:31N 41°16' W 072°32'0 0.0
2017-Dec-07 08:01N 41°16' W 072°32'0 0.0
2017-Dec-07 07:31N 41°16' W 072°32'0 0.0
2017-Dec-07 07:00N 41°16' W 072°32'0 0.0
2017-Dec-07 06:31N 41°16' W 072°32'0 0.0
2017-Dec-07 06:00N 41°16' W 072°32'0 0.0
2017-Dec-07 05:31N 41°16' W 072°32'0 0.0
2017-Dec-07 05:01N 41°16' W 072°32'0 0.0
2017-Dec-07 04:31N 41°16' W 072°32'0 0.0
2017-Dec-07 04:00N 41°16' W 072°32'0 0.0
2017-Dec-07 03:31N 41°16' W 072°32'0 0.0
2017-Dec-07 03:01N 41°16' W 072°32'0 0.0
2017-Dec-07 02:31N 41°16' W 072°32'0 0.0
2017-Dec-07 02:01N 41°16' W 072°32'0 0.0
2017-Dec-07 01:31N 41°16' W 072°32'0 0.0
2017-Dec-07 01:00N 41°16' W 072°32'0 0.0
2017-Dec-07 00:31N 41°16' W 072°32'0 0.0
2017-Dec-07 00:01N 41°16' W 072°32'1 2.3
2017-Dec-06 23:30N 41°15' W 072°32'1 1.8
2017-Dec-06 23:00N 41°16' W 072°32'0 0.8
2017-Dec-06 22:30N 41°16' W 072°32'0 0.0
2017-Dec-06 22:00N 41°16' W 072°32'0 0.0
2017-Dec-06 21:30N 41°16' W 072°32'0 0.0
2017-Dec-06 21:00N 41°16' W 072°32'  
Track history (hours):
 
Tides and Currents Weather Stations Pressure Air Temp Water Temp Dewpoint Dewpoint Depression Visibility Wind Speed Wind Dir Waves Ship Positions

Judy C

Owner: Boston Line & Service Co Inc., Boston, MA. More information available from US FCC via Universal Licensing System and Coast Guard Vessel Documentation Center.

Last reported at 2017-Dec-16 20:47 UTC. Time now 2017-Dec-17 15:41 UTC.
Position N 42°20' W 070°60'.

Length 13 m.

Type: Ship. MMSI: 367760510.

Date/timePositionNaut miles runAvg speedWind from/ knotsBaromVisibWave heightAir tempDewpointWater temp
2017-Dec-16 20:47N 42°20' W 070°60'2 3.6
2017-Dec-16 20:05N 42°21' W 070°56'5 1.3
2017-Dec-16 16:34N 42°22' W 071°02'1 9.4
2017-Dec-16 16:28N 42°22' W 071°03'1 1.2
2017-Dec-16 16:00N 42°23' W 071°03'0 0.0
2017-Dec-16 15:30N 42°23' W 071°03'0 0.0
2017-Dec-16 15:00N 42°23' W 071°03'0 0.0
2017-Dec-16 14:30N 42°23' W 071°03'3 1.6
2017-Dec-16 12:38N 42°21' W 071°00'1 0.1
2017-Dec-15 22:16N 42°20' W 070°59'2 3.5
2017-Dec-15 21:43N 42°20' W 070°57'0 0.0
2017-Dec-15 21:30N 42°20' W 070°57'1 0.9
2017-Dec-15 20:52N 42°20' W 070°58'1 0.2
2017-Dec-15 17:53N 42°20' W 070°58'0 0.0
2017-Dec-15 05:16N 42°20' W 070°58'0 0.0
2017-Dec-15 04:48N 42°20' W 070°58'0 0.0
2017-Dec-15 04:30N 42°20' W 070°58'3 0.1
2017-Dec-13 22:21N 42°22' W 071°02'2 0.2
2017-Dec-13 12:37N 42°20' W 070°59'2 0.1
2017-Dec-11 22:24N 42°20' W 070°56'616.4
2017-Dec-11 22:00N 42°19' W 070°47'9612.4
2017-Dec-11 14:14N 41°12' W 072°19'418.2
2017-Dec-11 14:00N 41°13' W 072°25'612.8
2017-Dec-11 13:30N 41°16' W 072°32'0 0.0
2017-Dec-11 13:00N 41°16' W 072°32'0 0.0
2017-Dec-11 12:30N 41°16' W 072°32'0 0.0
2017-Dec-11 12:00N 41°16' W 072°32'0 0.0
2017-Dec-11 11:30N 41°16' W 072°32'0 0.0
2017-Dec-11 11:00N 41°16' W 072°32'0 0.0
2017-Dec-11 10:30N 41°16' W 072°32'0 0.0
2017-Dec-11 10:00N 41°16' W 072°32'0 0.0
2017-Dec-11 09:30N 41°16' W 072°32'0 0.0
2017-Dec-11 09:00N 41°16' W 072°32'0 0.0
2017-Dec-11 08:30N 41°16' W 072°32'0 0.0
2017-Dec-11 08:00N 41°16' W 072°32'0 0.0
2017-Dec-11 07:30N 41°16' W 072°32'0 0.0
2017-Dec-11 07:00N 41°16' W 072°32'0 0.0
2017-Dec-11 06:30N 41°16' W 072°32'0 0.0
2017-Dec-11 06:00N 41°16' W 072°32'0 0.0
2017-Dec-11 05:30N 41°16' W 072°32'0 0.0
2017-Dec-11 05:00N 41°16' W 072°32'0 0.0
2017-Dec-11 04:30N 41°16' W 072°32'0 0.0
2017-Dec-11 04:00N 41°16' W 072°32'0 0.0
2017-Dec-11 03:30N 41°16' W 072°32'0 0.0
2017-Dec-11 03:00N 41°16' W 072°32'0 0.0
2017-Dec-11 02:30N 41°16' W 072°32'0 0.0
2017-Dec-09 22:13N 41°16' W 072°32'0 0.1
2017-Dec-09 22:00N 41°16' W 072°32'2 3.8
2017-Dec-09 21:31N 41°15' W 072°34'0 0.9
2017-Dec-09 21:01N 41°16' W 072°34'0 0.0
2017-Dec-09 20:31N 41°16' W 072°34'0 0.5
2017-Dec-09 20:01N 41°15' W 072°34'0 0.3
2017-Dec-09 19:31N 41°16' W 072°34'0 0.5
2017-Dec-09 19:01N 41°16' W 072°34'0 0.0
2017-Dec-09 18:31N 41°16' W 072°34'0 0.2
2017-Dec-09 18:01N 41°16' W 072°34'0 0.2
2017-Dec-09 17:31N 41°16' W 072°34'0 0.0
2017-Dec-09 17:01N 41°16' W 072°34'0 0.0
2017-Dec-09 16:31N 41°16' W 072°34'0 0.0
2017-Dec-09 16:01N 41°16' W 072°34'0 0.1
2017-Dec-09 15:31N 41°16' W 072°34'0 0.0
2017-Dec-09 15:01N 41°16' W 072°34'0 0.5
2017-Dec-09 14:31N 41°16' W 072°34'2 3.4
2017-Dec-09 14:00N 41°16' W 072°32'0 0.0
2017-Dec-09 13:30N 41°16' W 072°32'0 0.0
2017-Dec-09 13:00N 41°16' W 072°32'2 3.8
2017-Dec-09 12:30N 41°15' W 072°34'2 3.9
2017-Dec-09 12:00N 41°16' W 072°32'0 0.0
2017-Dec-09 11:31N 41°16' W 072°32'0 0.0
2017-Dec-09 11:01N 41°16' W 072°32'0 0.0
2017-Dec-09 10:30N 41°16' W 072°32'0 0.0
2017-Dec-09 10:00N 41°16' W 072°32'0 0.0
2017-Dec-09 09:30N 41°16' W 072°32'0 0.0
2017-Dec-09 09:00N 41°16' W 072°32'0 0.0
2017-Dec-09 08:30N 41°16' W 072°32'0 0.0
2017-Dec-09 08:00N 41°16' W 072°32'0 0.0
2017-Dec-09 07:31N 41°16' W 072°32'0 0.0
2017-Dec-09 07:00N 41°16' W 072°32'0 0.0
2017-Dec-09 06:30N 41°16' W 072°32'0 0.0
2017-Dec-09 06:00N 41°16' W 072°32'0 0.0
2017-Dec-09 05:30N 41°16' W 072°32'0 0.0
2017-Dec-09 05:00N 41°16' W 072°32'0 0.0
2017-Dec-09 04:31N 41°16' W 072°32'0 0.0
2017-Dec-09 04:00N 41°16' W 072°32'0 0.0
2017-Dec-09 03:30N 41°16' W 072°32'0 0.0
2017-Dec-09 03:00N 41°16' W 072°32'0 0.0
2017-Dec-09 02:30N 41°16' W 072°32'0 0.0
2017-Dec-09 02:00N 41°16' W 072°32'0 0.0
2017-Dec-09 01:30N 41°16' W 072°32'0 0.0
2017-Dec-09 01:00N 41°16' W 072°32'0 0.0
2017-Dec-09 00:30N 41°16' W 072°32'0 0.0
2017-Dec-09 00:00N 41°16' W 072°32'0 0.0
2017-Dec-08 23:30N 41°16' W 072°32'0 0.0
2017-Dec-08 23:00N 41°16' W 072°32'0 0.0
2017-Dec-08 22:30N 41°16' W 072°32'0 0.0
2017-Dec-08 22:00N 41°16' W 072°32'0 0.0
2017-Dec-08 21:30N 41°16' W 072°32'0 0.0
2017-Dec-08 21:00N 41°16' W 072°32'0 0.0
2017-Dec-08 20:30N 41°16' W 072°32'0 0.0
2017-Dec-08 20:00N 41°16' W 072°32'0 0.0
2017-Dec-08 19:30N 41°16' W 072°32'0 0.0
2017-Dec-08 19:00N 41°16' W 072°32'0 0.0
2017-Dec-08 18:31N 41°16' W 072°32'0 0.0
2017-Dec-08 18:00N 41°16' W 072°32'0 0.0
2017-Dec-08 17:30N 41°16' W 072°32'0 0.0
2017-Dec-08 17:00N 41°16' W 072°32'0 0.0
2017-Dec-08 16:30N 41°16' W 072°32'0 0.0
2017-Dec-08 16:00N 41°16' W 072°32'0 0.0
2017-Dec-08 15:30N 41°16' W 072°32'0 0.0
2017-Dec-08 15:00N 41°16' W 072°32'0 0.0
2017-Dec-08 14:30N 41°16' W 072°32'0 0.0
2017-Dec-08 14:00N 41°16' W 072°32'0 0.0
2017-Dec-08 13:30N 41°16' W 072°32'0 0.0
2017-Dec-08 13:00N 41°16' W 072°32'0 0.0
2017-Dec-08 12:30N 41°16' W 072°32'0 0.0
2017-Dec-08 12:00N 41°16' W 072°32'0 0.0
2017-Dec-08 11:30N 41°16' W 072°32'0 0.0
2017-Dec-08 11:00N 41°16' W 072°32'0 0.0
2017-Dec-08 10:30N 41°16' W 072°32'0 0.0
2017-Dec-08 10:00N 41°16' W 072°32'0 0.0
2017-Dec-08 09:30N 41°16' W 072°32'0 0.0
2017-Dec-08 09:00N 41°16' W 072°32'0 0.0
2017-Dec-08 08:30N 41°16' W 072°32'0 0.0
2017-Dec-08 08:00N 41°16' W 072°32'0 0.0
2017-Dec-08 07:30N 41°16' W 072°32'0 0.0
2017-Dec-08 07:00N 41°16' W 072°32'0 0.0
2017-Dec-08 06:30N 41°16' W 072°32'0 0.0
2017-Dec-08 06:00N 41°16' W 072°32'0 0.0
2017-Dec-08 05:30N 41°16' W 072°32'2 3.2
2017-Dec-08 05:00N 41°15' W 072°32'2 3.2
2017-Dec-08 04:30N 41°16' W 072°32'0 0.0
2017-Dec-08 04:00N 41°16' W 072°32'0 0.0
2017-Dec-08 03:30N 41°16' W 072°32'0 0.0
2017-Dec-08 03:00N 41°16' W 072°32'2 3.6
2017-Dec-08 02:30N 41°14' W 072°33'1 2.9
2017-Dec-08 02:00N 41°16' W 072°34'0 0.0
2017-Dec-08 01:30N 41°16' W 072°34'0 0.1
2017-Dec-08 01:00N 41°16' W 072°34'2 3.1
2017-Dec-08 00:30N 41°16' W 072°32'0 0.0
2017-Dec-08 00:00N 41°16' W 072°32'2 3.2
2017-Dec-07 23:30N 41°16' W 072°34'2 3.2
2017-Dec-07 23:00N 41°16' W 072°32'0 0.0
2017-Dec-07 22:30N 41°16' W 072°32'0 0.0
2017-Dec-07 22:00N 41°16' W 072°32'0 0.0
2017-Dec-07 21:30N 41°16' W 072°32'0 0.0
2017-Dec-07 21:00N 41°16' W 072°32'0 0.0
2017-Dec-07 20:30N 41°16' W 072°32'0 0.0
2017-Dec-07 20:00N 41°16' W 072°32'0 0.0
2017-Dec-07 19:30N 41°16' W 072°32'0 0.0
2017-Dec-07 19:00N 41°16' W 072°32'0 0.0
2017-Dec-07 18:30N 41°16' W 072°32'0 0.0
2017-Dec-07 18:00N 41°16' W 072°32'0 0.0
2017-Dec-07 17:30N 41°16' W 072°32'0 0.0
2017-Dec-07 17:00N 41°16' W 072°32'2 3.7
2017-Dec-07 16:30N 41°15' W 072°34'2 3.8
2017-Dec-07 16:00N 41°16' W 072°32'0 0.0
2017-Dec-07 15:30N 41°16' W 072°32'0 0.0
2017-Dec-07 15:00N 41°16' W 072°32'0 0.0
2017-Dec-07 14:30N 41°16' W 072°32'0 0.0
2017-Dec-07 14:00N 41°16' W 072°32'0 0.0
2017-Dec-07 13:30N 41°16' W 072°32'0 0.0
2017-Dec-07 13:00N 41°16' W 072°32'0 0.0
2017-Dec-07 12:30N 41°16' W 072°32'0 0.0
2017-Dec-07 12:00N 41°16' W 072°32'2 3.7
2017-Dec-07 11:30N 41°15' W 072°34'2 3.7
2017-Dec-07 11:00N 41°16' W 072°32'0 0.0
2017-Dec-07 10:31N 41°16' W 072°32'0 0.0
2017-Dec-07 10:00N 41°16' W 072°32'0 0.0
2017-Dec-07 09:31N 41°16' W 072°32'0 0.0
2017-Dec-07 09:00N 41°16' W 072°32'0 0.0
2017-Dec-07 08:31N 41°16' W 072°32'0 0.0
2017-Dec-07 08:01N 41°16' W 072°32'0 0.0
2017-Dec-07 07:31N 41°16' W 072°32'0 0.0
2017-Dec-07 07:00N 41°16' W 072°32'0 0.0
2017-Dec-07 06:31N 41°16' W 072°32'0 0.0
2017-Dec-07 06:00N 41°16' W 072°32'0 0.0
2017-Dec-07 05:31N 41°16' W 072°32'0 0.0
2017-Dec-07 05:01N 41°16' W 072°32'0 0.0
2017-Dec-07 04:31N 41°16' W 072°32'0 0.0
2017-Dec-07 04:00N 41°16' W 072°32'0 0.0
2017-Dec-07 03:31N 41°16' W 072°32'0 0.0
2017-Dec-07 03:01N 41°16' W 072°32'0 0.0
2017-Dec-07 02:31N 41°16' W 072°32'0 0.0
2017-Dec-07 02:01N 41°16' W 072°32'0 0.0
2017-Dec-07 01:31N 41°16' W 072°32'0 0.0
2017-Dec-07 01:00N 41°16' W 072°32'0 0.0
2017-Dec-07 00:31N 41°16' W 072°32'0 0.0
2017-Dec-07 00:01N 41°16' W 072°32'1 2.3
2017-Dec-06 23:30N 41°15' W 072°32'1 1.8
2017-Dec-06 23:00N 41°16' W 072°32'0 0.8
2017-Dec-06 22:30N 41°16' W 072°32'0 0.0
2017-Dec-06 22:00N 41°16' W 072°32'0 0.0
2017-Dec-06 21:30N 41°16' W 072°32'0 0.0
2017-Dec-06 21:00N 41°16' W 072°32'  

Dump ship's entire track history